createdAt,value
2022-10-26T00:01:23.939Z,14.10
2022-10-26T00:03:26.092Z,14.93
2022-10-26T00:05:28.153Z,14.32
2022-10-26T00:07:30.712Z,13.70
2022-10-26T00:09:33.157Z,14.57
2022-10-26T00:11:35.256Z,14.20
2022-10-26T00:13:37.947Z,13.65
2022-10-26T00:15:42.231Z,14.00
2022-10-26T00:17:44.608Z,13.10
2022-10-26T00:19:46.835Z,14.43
2022-10-26T00:21:49.170Z,14.82
2022-10-26T00:23:53.896Z,14.35
2022-10-26T00:25:57.427Z,14.80
2022-10-26T00:27:59.824Z,13.88
2022-10-26T00:30:03.693Z,14.13
2022-10-26T00:32:06.873Z,12.77
2022-10-26T00:34:11.433Z,13.73
2022-10-26T00:40:00.323Z,11.80
2022-10-26T00:42:03.067Z,12.63
2022-10-26T00:44:42.679Z,11.48
2022-10-26T00:46:45.008Z,11.93
2022-10-26T00:48:51.506Z,13.50
2022-10-26T00:50:55.884Z,14.63
2022-10-26T00:52:59.881Z,23.77
2022-10-26T00:55:02.386Z,24.58
2022-10-26T00:57:04.703Z,26.85
2022-10-26T00:59:09.993Z,27.13
2022-10-26T01:01:12.171Z,20.13
2022-10-26T01:03:14.847Z,17.63
2022-10-26T01:05:18.196Z,14.38
2022-10-26T01:09:24.928Z,13.63
2022-10-26T01:11:26.928Z,13.43
2022-10-26T01:13:33.855Z,14.10
2022-10-26T01:15:50.593Z,12.75
2022-10-26T01:18:03.266Z,12.75
2022-10-26T01:20:24.029Z,11.98
2022-10-26T01:22:50.105Z,12.85
2022-10-26T01:25:18.448Z,12.55
2022-10-26T01:27:36.266Z,13.10
2022-10-26T01:30:15.602Z,13.10
2022-10-26T01:32:33.523Z,12.75
2022-10-26T01:34:44.884Z,12.68
2022-10-26T01:37:02.900Z,12.15
2022-10-26T01:47:05.516Z,17.77
2022-10-26T01:49:12.254Z,16.23
2022-10-26T01:51:15.648Z,14.05
2022-10-26T01:53:19.646Z,14.07
2022-10-26T01:55:49.096Z,15.18
2022-10-26T02:01:42.626Z,27.65
2022-10-26T02:04:04.536Z,25.40
2022-10-26T02:06:15.543Z,18.80
2022-10-26T02:08:30.674Z,14.75
2022-10-26T02:10:53.539Z,13.27
2022-10-26T02:13:13.494Z,13.80
2022-10-26T02:15:22.482Z,13.38
2022-10-26T02:17:59.821Z,13.20
2022-10-26T02:20:10.744Z,12.48
2022-10-26T02:22:21.784Z,11.65
2022-10-26T02:24:27.079Z,12.95
2022-10-26T02:26:33.346Z,12.15
2022-10-26T02:28:39.468Z,11.55
2022-10-26T02:30:43.662Z,12.30
2022-10-26T02:32:50.574Z,11.45
2022-10-26T02:34:55.271Z,10.95
2022-10-26T02:37:01.039Z,11.32
2022-10-26T02:39:06.331Z,10.73
2022-10-26T02:41:09.172Z,11.75
2022-10-26T02:43:22.355Z,12.55
2022-10-26T02:45:31.052Z,11.32
2022-10-26T02:47:34.024Z,10.43
2022-10-26T02:58:26.816Z,9.63
2022-10-26T03:00:30.413Z,11.25
2022-10-26T03:02:32.324Z,10.50
2022-10-26T03:04:35.461Z,11.10
2022-10-26T03:06:37.604Z,12.60
2022-10-26T03:08:39.714Z,9.63
2022-10-26T03:10:44.967Z,10.73
2022-10-26T03:12:47.508Z,11.68
2022-10-26T03:14:49.671Z,10.15
2022-10-26T03:18:58.796Z,10.35
2022-10-26T03:21:01.048Z,11.00
2022-10-26T03:23:03.113Z,12.18
2022-10-26T03:25:06.078Z,11.00
2022-10-26T03:27:11.361Z,10.95
2022-10-26T03:29:13.425Z,11.80
2022-10-26T03:31:18.649Z,12.23
2022-10-26T03:33:24.367Z,10.90
2022-10-26T03:35:29.188Z,11.10
2022-10-26T03:37:31.164Z,11.07
2022-10-26T03:39:33.257Z,11.63
2022-10-26T03:41:38.490Z,12.00
2022-10-26T03:43:40.499Z,13.45
2022-10-26T03:45:42.657Z,13.25
2022-10-26T03:47:49.364Z,11.57
2022-10-26T03:49:51.544Z,11.80
2022-10-26T03:51:53.727Z,11.40
2022-10-26T03:53:55.976Z,12.75
2022-10-26T03:55:58.039Z,13.38
2022-10-26T03:58:00.026Z,14.13
2022-10-26T04:00:02.182Z,12.77
2022-10-26T04:02:15.422Z,12.43
2022-10-26T04:04:17.487Z,13.13
2022-10-26T04:06:19.651Z,12.50
2022-10-26T04:08:21.710Z,11.88
2022-10-26T04:10:24.956Z,13.18
2022-10-26T04:12:27.054Z,11.43
2022-10-26T04:14:29.079Z,12.63
2022-10-26T04:16:33.420Z,13.07
2022-10-26T04:18:36.059Z,13.10
2022-10-26T04:20:39.272Z,11.57
2022-10-26T04:22:41.431Z,11.75
2022-10-26T04:24:43.515Z,11.90
2022-10-26T04:26:46.014Z,12.02
2022-10-26T04:28:48.196Z,11.82
2022-10-26T04:30:50.387Z,11.93
2022-10-26T04:32:52.563Z,14.98
2022-10-26T04:34:54.645Z,26.70
2022-10-26T04:36:56.858Z,26.35
2022-10-26T04:38:58.619Z,30.80
2022-10-26T04:41:00.574Z,26.67
2022-10-26T04:43:02.961Z,20.65
2022-10-26T04:45:06.595Z,17.10
2022-10-26T04:47:08.510Z,14.80
2022-10-26T04:49:10.647Z,14.07
2022-10-26T04:51:12.632Z,15.52
2022-10-26T04:53:15.571Z,15.63
2022-10-26T04:55:17.756Z,15.98
2022-10-26T04:57:22.875Z,15.05
2022-10-26T04:59:25.015Z,13.82
2022-10-26T05:01:27.945Z,15.57
2022-10-26T05:03:30.249Z,18.15
2022-10-26T05:05:39.121Z,17.02
2022-10-26T05:07:41.354Z,19.25
2022-10-26T05:09:43.588Z,19.95
2022-10-26T05:11:46.186Z,22.77
2022-10-26T05:13:49.373Z,21.67
2022-10-26T05:15:54.597Z,18.13
2022-10-26T05:18:03.019Z,14.93
2022-10-26T05:20:06.387Z,17.35
2022-10-26T05:22:08.652Z,18.35
2022-10-26T05:24:12.490Z,21.13
2022-10-26T05:26:14.758Z,37.13
2022-10-26T05:28:17.511Z,44.35
2022-10-26T05:30:19.549Z,50.35
2022-10-26T05:32:21.615Z,60.15
2022-10-26T05:34:23.579Z,75.65
2022-10-26T05:36:25.983Z,62.63
2022-10-26T05:38:27.859Z,66.80
2022-10-26T05:40:29.912Z,42.88
2022-10-26T05:42:31.628Z,31.98
2022-10-26T05:44:36.010Z,28.23
2022-10-26T05:46:38.067Z,25.48
2022-10-26T05:48:40.102Z,20.73
2022-10-26T05:50:42.077Z,16.40
2022-10-26T05:52:46.093Z,16.58
2022-10-26T05:54:48.107Z,15.95
2022-10-26T05:56:50.465Z,17.95
2022-10-26T05:58:52.940Z,16.38
2022-10-26T06:01:27.261Z,17.98
2022-10-26T06:03:42.249Z,21.70
2022-10-26T06:06:11.648Z,20.15
2022-10-26T06:08:13.890Z,20.48
2022-10-26T06:10:16.859Z,21.55
2022-10-26T06:12:19.867Z,18.25
2022-10-26T06:14:22.740Z,21.13
2022-10-26T06:16:35.169Z,21.30
2022-10-26T06:18:43.422Z,21.58
2022-10-26T06:21:00.111Z,22.30
2022-10-26T06:23:47.154Z,20.00
2022-10-26T06:25:55.546Z,18.17
2022-10-26T06:27:57.597Z,18.33
2022-10-26T06:30:07.183Z,16.85
2022-10-26T06:32:27.466Z,17.25
2022-10-26T06:34:34.676Z,18.50
2022-10-26T06:36:39.074Z,16.83
2022-10-26T06:38:44.690Z,15.10
2022-10-26T06:40:50.164Z,17.38
2022-10-26T06:42:52.477Z,16.80
2022-10-26T06:44:54.961Z,16.00
2022-10-26T06:47:06.410Z,19.27
2022-10-26T06:49:13.916Z,20.02
2022-10-26T06:51:17.427Z,18.58
2022-10-26T06:53:26.778Z,18.85
2022-10-26T06:55:36.303Z,23.20
2022-10-26T06:57:39.908Z,18.02
2022-10-26T06:59:52.217Z,19.40
2022-10-26T07:01:54.368Z,17.98
2022-10-26T07:03:56.727Z,16.15
2022-10-26T07:05:58.676Z,14.73
2022-10-26T07:08:00.787Z,17.92
2022-10-26T07:10:02.875Z,15.63
2022-10-26T07:12:05.105Z,15.05
2022-10-26T07:14:07.400Z,17.95
2022-10-26T07:16:09.196Z,17.08
2022-10-26T07:18:11.416Z,17.05
2022-10-26T07:20:14.727Z,17.70
2022-10-26T07:22:17.311Z,16.25
2022-10-26T07:24:19.437Z,15.15
2022-10-26T07:26:21.334Z,15.35
2022-10-26T07:28:23.332Z,15.15
2022-10-26T07:30:27.181Z,15.15
2022-10-26T07:32:29.806Z,14.95
2022-10-26T07:34:31.750Z,15.43
2022-10-26T07:36:36.974Z,14.20
2022-10-26T07:38:39.544Z,14.93
2022-10-26T07:40:41.670Z,14.77
2022-10-26T07:42:46.843Z,14.40
2022-10-26T07:44:50.039Z,14.13
2022-10-26T07:46:52.148Z,16.02
2022-10-26T07:48:54.281Z,28.92
2022-10-26T07:50:56.350Z,30.58
2022-10-26T07:53:00.032Z,22.35
2022-10-26T07:55:02.172Z,20.15
2022-10-26T07:59:07.684Z,42.58
2022-10-26T08:01:14.453Z,31.67
2022-10-26T08:03:17.776Z,28.83
2022-10-26T08:05:20.010Z,28.23
2022-10-26T08:07:22.285Z,23.20
2022-10-26T08:09:24.367Z,22.25
2022-10-26T08:11:27.060Z,20.63
2022-10-26T08:13:29.112Z,19.17
2022-10-26T08:15:31.278Z,20.15
2022-10-26T08:17:33.379Z,62.30
2022-10-26T08:20:16.451Z,85.40
2022-10-26T08:22:18.548Z,73.40
2022-10-26T08:24:20.378Z,49.75
2022-10-26T08:26:22.436Z,44.45
2022-10-26T08:28:24.437Z,36.17
2022-10-26T08:30:26.555Z,27.02
2022-10-26T08:32:28.577Z,28.98
2022-10-26T08:34:30.548Z,26.30
2022-10-26T08:36:32.586Z,38.50
2022-10-26T08:38:34.468Z,48.75
2022-10-26T08:40:39.495Z,49.22
2022-10-26T08:42:47.799Z,55.25
2022-10-26T08:44:58.393Z,78.30
2022-10-26T08:49:29.759Z,64.72
2022-10-26T08:51:37.690Z,50.65
2022-10-26T08:53:52.544Z,66.85
2022-10-26T08:56:01.979Z,70.88
2022-10-26T08:58:07.830Z,58.33
2022-10-26T09:00:18.387Z,57.67
2022-10-26T09:02:21.502Z,55.38
2022-10-26T09:04:29.919Z,45.42
2022-10-26T09:07:02.924Z,42.97
2022-10-26T09:09:21.716Z,38.80
2022-10-26T09:11:50.328Z,36.90
2022-10-26T09:14:04.795Z,30.33
2022-10-26T09:16:30.873Z,30.63
2022-10-26T09:18:56.722Z,38.38
2022-10-26T09:21:19.912Z,50.30
2022-10-26T09:26:43.156Z,65.70
2022-10-26T09:28:48.234Z,54.17
2022-10-26T09:31:53.326Z,38.92
2022-10-26T09:33:56.994Z,32.22
2022-10-26T09:36:03.541Z,36.15
2022-10-26T09:38:22.592Z,31.33
2022-10-26T09:40:29.596Z,26.15
2022-10-26T09:42:47.629Z,26.02
2022-10-26T09:45:03.891Z,25.48
2022-10-26T09:47:24.079Z,29.83
2022-10-26T09:49:41.423Z,31.90
2022-10-26T09:51:45.262Z,33.47
2022-10-26T09:53:48.590Z,34.17
2022-10-26T09:56:15.353Z,29.30
2022-10-26T09:58:46.596Z,21.90
2022-10-26T10:00:48.923Z,21.00
2022-10-26T10:02:53.898Z,26.60
2022-10-26T10:04:56.173Z,24.52
2022-10-26T10:07:18.696Z,32.78
2022-10-26T10:09:24.923Z,32.72
2022-10-26T10:11:44.945Z,22.05
2022-10-26T10:13:47.176Z,25.20
2022-10-26T10:16:01.910Z,20.50
2022-10-26T10:18:04.032Z,34.03
2022-10-26T10:25:01.594Z,39.92
2022-10-26T10:27:15.727Z,34.65
2022-10-26T10:29:18.306Z,29.92
2022-10-26T10:31:26.100Z,58.47
2022-10-26T10:33:35.360Z,93.78
2022-10-26T10:35:48.127Z,97.90
2022-10-26T10:37:51.866Z,93.72
2022-10-26T10:40:03.448Z,82.68
2022-10-26T10:42:14.145Z,78.72
2022-10-26T10:44:21.343Z,54.03
2022-10-26T10:46:27.028Z,50.72
2022-10-26T10:48:29.684Z,46.40
2022-10-26T10:50:34.279Z,26.67
2022-10-26T10:52:36.442Z,15.48
2022-10-26T10:54:40.008Z,11.02
2022-10-26T10:56:44.680Z,14.65
2022-10-26T10:59:08.851Z,13.25
2022-10-26T11:01:18.925Z,14.88
2022-10-26T11:03:41.217Z,29.83
2022-10-26T11:06:17.846Z,23.17
2022-10-26T11:08:43.247Z,22.17
2022-10-26T11:11:12.384Z,23.92
2022-10-26T11:13:24.551Z,21.73
2022-10-26T11:15:30.690Z,23.60
2022-10-26T11:17:58.174Z,19.77
2022-10-26T11:20:04.762Z,17.23
2022-10-26T11:22:17.533Z,11.70
2022-10-26T11:24:39.667Z,15.98
2022-10-26T11:27:02.489Z,29.63
2022-10-26T11:29:27.326Z,19.65
2022-10-26T11:31:39.440Z,16.40
2022-10-26T11:33:46.234Z,13.65
2022-10-26T11:36:16.114Z,15.00
2022-10-26T11:38:45.363Z,13.77
2022-10-26T11:40:58.890Z,13.55
2022-10-26T11:43:16.373Z,9.30
2022-10-26T11:45:26.773Z,43.63
2022-10-26T11:47:41.043Z,69.03
2022-10-26T11:49:52.131Z,46.95
2022-10-26T11:52:14.701Z,34.95
2022-10-26T11:54:45.937Z,21.00
2022-10-26T11:56:52.148Z,21.00
2022-10-26T11:58:56.048Z,20.08
2022-10-26T12:01:05.160Z,17.83
2022-10-26T12:03:15.476Z,12.13
2022-10-26T12:05:27.860Z,12.25
2022-10-26T12:07:33.400Z,9.90
2022-10-26T12:09:39.178Z,9.05
2022-10-26T12:11:53.163Z,6.95
2022-10-26T12:14:00.125Z,5.88
2022-10-26T12:16:33.688Z,4.50
2022-10-26T12:18:56.344Z,4.95
2022-10-26T12:21:29.010Z,4.40
2022-10-26T12:23:41.040Z,5.75
2022-10-26T12:25:50.070Z,11.25
2022-10-26T12:27:55.108Z,12.45
2022-10-26T12:30:20.147Z,10.70
2022-10-26T12:32:45.157Z,8.48
2022-10-26T12:34:47.453Z,5.47
2022-10-26T12:37:11.238Z,5.22
2022-10-26T12:39:31.679Z,5.22
2022-10-26T12:41:39.308Z,4.80
2022-10-26T12:43:42.091Z,7.78
2022-10-26T12:45:46.494Z,8.93
2022-10-26T12:47:48.906Z,9.73
2022-10-26T12:50:00.310Z,9.90
2022-10-26T12:54:32.649Z,4.30
2022-10-26T12:56:37.803Z,3.00
2022-10-26T12:59:04.838Z,2.92
2022-10-26T13:01:07.418Z,3.08
2022-10-26T13:03:36.048Z,2.80
2022-10-26T13:05:41.228Z,2.70
2022-10-26T13:07:43.554Z,2.78
2022-10-26T13:09:54.859Z,3.60
2022-10-26T13:11:58.258Z,4.18
2022-10-26T13:14:06.981Z,3.03
2022-10-26T13:16:12.610Z,2.95
2022-10-26T13:18:19.956Z,3.17
2022-10-26T13:20:22.439Z,2.30
2022-10-26T13:22:25.219Z,3.00
2022-10-26T13:24:32.760Z,2.53
2022-10-26T13:27:17.962Z,2.58
2022-10-26T13:29:30.879Z,2.55
2022-10-26T13:31:33.067Z,2.42
2022-10-26T13:33:42.036Z,2.33
2022-10-26T13:35:44.972Z,3.33
2022-10-26T13:37:50.761Z,3.35
2022-10-26T13:39:56.224Z,6.63
2022-10-26T13:41:59.979Z,7.47
2022-10-26T13:44:06.778Z,7.82
2022-10-26T13:46:25.285Z,6.70
2022-10-26T13:48:41.438Z,6.25
2022-10-26T13:50:55.415Z,4.82
2022-10-26T13:53:15.079Z,5.32
2022-10-26T13:55:53.541Z,4.10
2022-10-26T13:58:17.239Z,3.58
2022-10-26T14:00:23.834Z,3.47
2022-10-26T14:02:28.087Z,3.30
2022-10-26T14:04:30.333Z,3.72
2022-10-26T14:06:36.011Z,4.15
2022-10-26T14:08:41.383Z,4.60
2022-10-26T14:10:48.883Z,4.30
2022-10-26T14:12:52.140Z,5.65
2022-10-26T14:15:09.346Z,4.00
2022-10-26T14:17:20.479Z,4.10
2022-10-26T14:19:28.682Z,4.10
2022-10-26T14:21:30.764Z,4.15
2022-10-26T14:23:45.332Z,3.88
2022-10-26T14:25:58.650Z,4.43
2022-10-26T14:28:07.708Z,4.40
2022-10-26T14:30:26.315Z,4.43
2022-10-26T14:32:33.616Z,4.22
2022-10-26T14:34:35.724Z,4.40
2022-10-26T14:37:00.722Z,4.28
2022-10-26T14:39:07.823Z,3.70
2022-10-26T14:41:10.703Z,4.00
2022-10-26T14:43:21.285Z,3.78
2022-10-26T14:45:48.913Z,4.25
2022-10-26T14:47:52.104Z,3.90
2022-10-26T14:49:54.684Z,3.13
2022-10-26T14:52:04.791Z,3.53
2022-10-26T14:54:21.050Z,3.83
2022-10-26T14:56:48.986Z,3.08
2022-10-26T14:58:51.827Z,3.55
2022-10-26T15:01:21.877Z,3.63
2022-10-26T15:03:24.496Z,4.18
2022-10-26T15:05:35.755Z,4.88
2022-10-26T15:07:40.091Z,3.92
2022-10-26T15:09:46.041Z,3.85
2022-10-26T15:11:48.183Z,4.88
2022-10-26T15:13:50.476Z,4.03
2022-10-26T15:15:58.067Z,3.85
2022-10-26T15:18:01.247Z,4.88
2022-10-26T15:20:07.033Z,4.90
2022-10-26T15:22:25.354Z,4.07
2022-10-26T15:24:38.537Z,5.68
2022-10-26T15:26:44.408Z,4.85
2022-10-26T15:28:49.858Z,5.53
2022-10-26T15:31:11.980Z,4.97
2022-10-26T15:33:24.395Z,6.80
2022-10-26T15:35:31.729Z,5.28
2022-10-26T15:37:33.679Z,6.63
2022-10-26T15:39:35.626Z,7.25
2022-10-26T15:41:45.437Z,7.65
2022-10-26T15:43:49.154Z,8.80
2022-10-26T15:45:56.458Z,8.68
2022-10-26T15:48:00.952Z,8.43
2022-10-26T15:50:03.066Z,8.63
2022-10-26T15:52:09.581Z,9.82
2022-10-26T15:54:11.785Z,9.05
2022-10-26T15:56:23.588Z,13.02
2022-10-26T15:58:31.633Z,13.13
2022-10-26T16:00:33.576Z,15.35
2022-10-26T16:02:38.852Z,18.00
2022-10-26T16:04:41.282Z,26.70
2022-10-26T16:06:43.425Z,33.78
2022-10-26T16:08:50.848Z,33.30
2022-10-26T16:10:52.744Z,39.70
2022-10-26T16:12:54.914Z,42.33
2022-10-26T16:15:05.499Z,46.00
2022-10-26T16:17:08.262Z,47.45
2022-10-26T16:19:30.493Z,48.95
2022-10-26T16:25:23.593Z,57.13
2022-10-26T16:27:26.450Z,59.78
2022-10-26T16:29:28.304Z,62.00
2022-10-26T16:31:30.170Z,71.40
2022-10-26T16:33:32.204Z,77.72
2022-10-26T16:35:34.293Z,74.70
2022-10-26T16:37:36.145Z,75.80
2022-10-26T16:39:38.231Z,78.13
2022-10-26T16:41:40.159Z,75.80
2022-10-26T16:43:44.800Z,75.82
2022-10-26T16:45:46.915Z,80.00
2022-10-26T16:47:49.391Z,78.45
2022-10-26T16:50:16.842Z,79.18
2022-10-26T16:52:19.041Z,95.57
2022-10-26T16:54:21.247Z,93.45
2022-10-26T16:56:26.501Z,75.03
2022-10-26T16:58:28.508Z,63.60
2022-10-26T17:00:30.665Z,55.58
2022-10-26T17:02:32.837Z,50.13
2022-10-26T17:04:34.864Z,47.17
2022-10-26T17:06:36.858Z,40.55
2022-10-26T17:08:39.403Z,35.00
2022-10-26T17:10:41.715Z,35.85
2022-10-26T17:12:43.673Z,33.10
2022-10-26T17:14:45.585Z,32.80
2022-10-26T17:16:47.583Z,33.80
2022-10-26T17:18:51.280Z,37.35
2022-10-26T17:20:53.273Z,38.33
2022-10-26T17:22:55.553Z,36.58
2022-10-26T17:24:57.586Z,41.35
2022-10-26T17:34:55.271Z,39.47
2022-10-26T17:36:57.380Z,37.03
2022-10-26T17:39:01.157Z,39.05
2022-10-26T17:41:06.347Z,33.38
2022-10-26T17:43:08.384Z,33.47
2022-10-26T17:45:11.196Z,35.15
2022-10-26T17:47:15.652Z,35.80
2022-10-26T17:49:17.806Z,43.42
2022-10-26T17:52:28.882Z,45.65
2022-10-26T17:54:31.284Z,44.53
2022-10-26T17:56:34.458Z,44.60
2022-10-26T17:58:37.143Z,44.63
2022-10-26T18:00:40.421Z,48.42
2022-10-26T18:02:42.690Z,46.40
2022-10-26T18:05:47.633Z,45.35
2022-10-26T18:07:50.081Z,39.22
2022-10-26T18:09:52.828Z,39.90
2022-10-26T18:11:55.962Z,40.03
2022-10-26T18:13:58.464Z,38.38
2022-10-26T18:16:05.097Z,36.42
2022-10-26T18:18:07.218Z,35.65
2022-10-26T18:20:09.631Z,33.78
2022-10-26T18:22:11.902Z,32.92
2022-10-26T18:24:13.903Z,30.75
2022-10-26T18:26:18.362Z,29.90
2022-10-26T18:28:20.509Z,28.70
2022-10-26T18:30:23.057Z,28.30
2022-10-26T18:32:25.160Z,27.38
2022-10-26T18:34:27.255Z,27.08
2022-10-26T18:36:29.999Z,25.38
2022-10-26T18:38:33.122Z,28.52
2022-10-26T18:40:35.134Z,26.10
2022-10-26T18:42:37.524Z,26.02
2022-10-26T18:44:39.578Z,27.17
2022-10-26T18:46:42.784Z,27.17
2022-10-26T18:48:45.080Z,28.83
2022-10-26T18:50:47.247Z,26.92
2022-10-26T18:52:49.564Z,27.45
2022-10-26T18:54:51.956Z,26.88
2022-10-26T18:56:57.027Z,25.70
2022-10-26T18:59:00.725Z,27.10
2022-10-26T19:01:13.547Z,26.08
2022-10-26T19:03:15.582Z,27.25
2022-10-26T19:05:17.788Z,28.20
2022-10-26T19:07:19.860Z,29.17
2022-10-26T19:09:22.252Z,31.05
2022-10-26T19:11:25.966Z,33.15
2022-10-26T19:13:28.152Z,35.85
2022-10-26T19:15:30.316Z,35.13
2022-10-26T19:17:32.762Z,31.80
2022-10-26T19:19:35.044Z,32.10
2022-10-26T19:21:40.205Z,30.30
2022-10-26T19:23:45.289Z,29.10
2022-10-26T19:25:53.985Z,26.27
2022-10-26T19:27:56.139Z,24.92
2022-10-26T19:29:59.169Z,24.90
2022-10-26T19:32:03.047Z,24.55
2022-10-26T19:34:06.181Z,22.40
2022-10-26T19:36:11.746Z,22.23
2022-10-26T19:38:13.872Z,21.63
2022-10-26T19:40:15.853Z,24.35
2022-10-26T19:42:17.713Z,23.75
2022-10-26T19:44:22.030Z,22.70
2022-10-26T19:46:29.374Z,21.42
2022-10-26T19:48:58.913Z,22.70
2022-10-26T19:51:01.093Z,21.30
2022-10-26T19:53:03.602Z,22.02
2022-10-26T19:55:06.132Z,20.75
2022-10-26T19:57:08.095Z,19.70
2022-10-26T19:59:11.244Z,21.48
2022-10-26T20:01:15.492Z,21.23
2022-10-26T20:03:17.873Z,19.50
2022-10-26T20:05:19.565Z,21.35
2022-10-26T20:07:22.944Z,20.75
2022-10-26T20:09:25.585Z,20.58
2022-10-26T20:11:28.185Z,20.00
2022-10-26T20:13:30.288Z,20.75
2022-10-26T20:15:32.830Z,20.15
2022-10-26T20:17:35.838Z,20.55
2022-10-26T20:19:38.722Z,20.25
2022-10-26T20:21:40.788Z,18.67
2022-10-26T20:23:43.528Z,18.88
2022-10-26T20:25:51.152Z,19.27
2022-10-26T20:27:53.459Z,18.50
2022-10-26T20:29:55.531Z,16.10
2022-10-26T20:31:59.913Z,16.35
2022-10-26T20:34:02.485Z,15.20
2022-10-26T20:36:04.558Z,15.10
2022-10-26T20:38:13.361Z,14.25
2022-10-26T20:40:16.286Z,15.52
2022-10-26T20:42:27.398Z,15.63
2022-10-26T20:44:36.087Z,16.08
2022-10-26T20:46:38.596Z,18.20
2022-10-26T20:48:40.879Z,20.85
2022-10-26T20:50:48.724Z,17.83
2022-10-26T20:52:53.647Z,20.80
2022-10-26T20:55:11.171Z,18.80
2022-10-26T20:57:39.395Z,20.27
2022-10-26T20:59:48.836Z,20.23
2022-10-26T21:01:50.842Z,17.77
2022-10-26T21:03:56.522Z,18.05
2022-10-26T21:05:58.676Z,21.00
2022-10-26T21:08:00.806Z,17.52
2022-10-26T21:10:03.185Z,17.85
2022-10-26T21:12:05.331Z,17.27
2022-10-26T21:14:08.446Z,18.42
2022-10-26T21:16:10.332Z,16.48
2022-10-26T21:18:13.023Z,17.33
2022-10-26T21:20:15.126Z,15.85
2022-10-26T21:22:17.230Z,16.08
2022-10-26T21:24:19.219Z,14.15
2022-10-26T21:26:21.332Z,14.02
2022-10-26T21:28:23.738Z,14.30
2022-10-26T21:30:26.557Z,15.25
2022-10-26T21:32:28.778Z,13.20
2022-10-26T21:34:30.759Z,13.90
2022-10-26T21:36:32.983Z,13.85
2022-10-26T21:38:35.522Z,14.32
2022-10-26T21:40:37.592Z,13.88
2022-10-26T21:42:42.151Z,14.32
2022-10-26T21:44:46.757Z,12.98
2022-10-26T21:46:48.880Z,13.55
2022-10-26T21:48:52.536Z,13.98
2022-10-26T21:50:54.864Z,12.93
2022-10-26T21:52:57.077Z,14.15
2022-10-26T21:54:59.227Z,13.00
2022-10-26T21:57:01.413Z,13.50
2022-10-26T21:59:05.979Z,14.63
2022-10-26T22:01:11.321Z,14.05
2022-10-26T22:03:13.912Z,12.48
2022-10-26T22:05:16.182Z,11.88
2022-10-26T22:07:20.262Z,11.63
2022-10-26T22:09:25.209Z,11.77
2022-10-26T22:11:29.290Z,11.13
2022-10-26T22:13:31.723Z,11.70
2022-10-26T22:15:34.030Z,10.38
2022-10-26T22:17:40.344Z,10.52
2022-10-26T22:19:45.079Z,11.63
2022-10-26T22:21:47.377Z,11.45
2022-10-26T22:23:49.610Z,10.88
2022-10-26T22:25:51.858Z,10.95
2022-10-26T22:27:54.195Z,10.30
2022-10-26T22:30:30.426Z,10.00
2022-10-26T22:32:32.662Z,9.27
2022-10-26T22:34:34.786Z,9.27
2022-10-26T22:36:36.760Z,9.93
2022-10-26T22:38:39.306Z,9.75
2022-10-26T22:40:41.249Z,9.93
2022-10-26T22:42:43.785Z,9.60
2022-10-26T22:44:46.027Z,9.38
2022-10-26T22:46:51.225Z,10.88
2022-10-26T22:48:54.952Z,9.65
2022-10-26T22:51:05.526Z,9.07
2022-10-26T22:53:07.699Z,8.75
2022-10-26T22:55:09.793Z,8.43
2022-10-26T22:57:11.852Z,8.82
2022-10-26T22:59:14.046Z,9.95
2022-10-26T23:01:20.344Z,9.60
2022-10-26T23:03:22.322Z,9.82
2022-10-26T23:05:24.530Z,10.27
2022-10-26T23:07:26.596Z,9.65
2022-10-26T23:09:28.536Z,9.63
2022-10-26T23:11:30.698Z,9.93
2022-10-26T23:13:32.781Z,8.38
2022-10-26T23:15:34.883Z,8.65
2022-10-26T23:17:37.053Z,8.50
2022-10-26T23:19:39.216Z,7.95
2022-10-26T23:21:41.260Z,9.43
2022-10-26T23:23:44.150Z,8.52
2022-10-26T23:25:46.203Z,8.48
2022-10-26T23:27:48.386Z,8.32
2022-10-26T23:29:50.605Z,7.78
2022-10-26T23:31:52.676Z,8.65
2022-10-26T23:33:56.629Z,8.02
2022-10-26T23:35:59.322Z,7.75
2022-10-26T23:38:01.376Z,7.20
2022-10-26T23:40:03.887Z,7.13
2022-10-26T23:42:06.009Z,8.18
2022-10-26T23:44:07.883Z,8.52
2022-10-26T23:46:09.872Z,8.43
2022-10-26T23:48:12.012Z,7.60
2022-10-26T23:50:14.505Z,7.95
2022-10-26T23:52:16.745Z,7.75
2022-10-26T23:54:18.796Z,7.28
2022-10-26T23:56:20.958Z,7.55
2022-10-26T23:58:23.247Z,7.90
